Time;durP1;ratioP1;P1;durP2;ratioP2;P2;SDS_P1;SDS_P2;PMS_P1;PMS_P2;Temp;Humidity;BMP_temperature;BMP_pressure;BME280_temperature;BME280_humidity;BME280_pressure;Samples;Min_cycle;Max_cycle;Signal;HPM_P1;HPM_P2
2023/04/28 00:00:55;;;;;;;6.28;2.97;;;;;;;;;;5108797;27;20047;-70
2023/04/28 00:03:22;;;;;;;4.38;2.53;;;;;;;;;;5129565;27;20486;-69
2023/04/28 00:05:50;;;;;;;4.45;2.70;;;;;;;;;;5128497;27;20036;-69
2023/04/28 00:08:17;;;;;;;6.35;2.80;;;;;;;;;;5130325;27;20078;-69
2023/04/28 00:10:44;;;;;;;4.18;2.33;;;;;;;;;;5130589;27;20047;-69
2023/04/28 00:13:14;;;;;;;3.30;2.40;;;;;;;;;;5128800;27;20447;-69
2023/04/28 00:15:41;;;;;;;5.03;2.35;;;;;;;;;;5114885;27;20051;-69
2023/04/28 00:18:09;;;;;;;3.22;2.20;;;;;;;;;;5127031;27;20127;-69
2023/04/28 00:20:36;;;;;;;4.82;2.28;;;;;;;;;;5131833;27;20482;-69
2023/04/28 00:23:03;;;;;;;4.20;2.50;;;;;;;;;;5128119;27;20040;-69
2023/04/28 00:25:31;;;;;;;4.22;2.20;;;;;;;;;;5128899;27;20478;-69
2023/04/28 00:27:58;;;;;;;4.47;2.40;;;;;;;;;;5110797;27;20047;-69
2023/04/28 00:30:26;;;;;;;3.20;2.00;;;;;;;;;;5129384;27;20042;-70
2023/04/28 00:32:54;;;;;;;3.67;2.20;;;;;;;;;;5126871;27;20043;-70
2023/04/28 00:35:21;;;;;;;6.43;2.50;;;;;;;;;;5126779;27;20389;-69
2023/04/28 00:37:48;;;;;;;4.15;2.10;;;;;;;;;;5125061;27;20545;-69
2023/04/28 00:40:16;;;;;;;4.20;2.10;;;;;;;;;;5111911;27;20054;-70
2023/04/28 00:42:43;;;;;;;3.53;2.00;;;;;;;;;;5127617;27;20486;-70
2023/04/28 00:45:10;;;;;;;3.70;2.08;;;;;;;;;;5126161;27;20047;-69
2023/04/28 00:47:39;;;;;;;3.78;1.80;;;;;;;;;;5128926;27;20043;-69
2023/04/28 00:50:09;;;;;;;3.97;2.00;;;;;;;;;;5128768;27;20062;-70
2023/04/28 00:52:36;;;;;;;4.93;2.28;;;;;;;;;;5108751;27;20051;-69
2023/04/28 00:55:04;;;;;;;5.35;2.45;;;;;;;;;;5111397;27;20058;-69
2023/04/28 00:57:32;;;;;;;4.28;2.42;;;;;;;;;;5130161;27;20047;-69
2023/04/28 00:59:59;;;;;;;4.35;2.55;;;;;;;;;;5129048;27;20059;-69
2023/04/28 01:02:28;;;;;;;3.10;2.25;;;;;;;;;;5128567;27;20682;-69
2023/04/28 01:04:56;;;;;;;4.68;2.33;;;;;;;;;;5129445;27;20470;-69
2023/04/28 01:07:24;;;;;;;4.05;2.33;;;;;;;;;;5128810;27;20054;-69
2023/04/28 01:09:51;;;;;;;4.07;2.47;;;;;;;;;;5127312;27;20134;-69
2023/04/28 01:12:18;;;;;;;4.88;2.47;;;;;;;;;;5129030;27;20083;-69
2023/04/28 01:14:46;;;;;;;5.00;2.30;;;;;;;;;;5111933;27;20104;-69
2023/04/28 01:17:13;;;;;;;4.47;2.30;;;;;;;;;;5130825;27;20047;-70
2023/04/28 01:19:40;;;;;;;4.38;2.50;;;;;;;;;;5106803;27;20046;-69
2023/04/28 01:22:12;;;;;;;4.35;2.22;;;;;;;;;;5129881;27;20476;-70
2023/04/28 01:24:41;;;;;;;4.85;2.45;;;;;;;;;;5105199;27;20551;-69
2023/04/28 01:27:08;;;;;;;4.40;2.33;;;;;;;;;;5127907;27;20070;-69
2023/04/28 01:29:35;;;;;;;3.60;2.38;;;;;;;;;;5109252;27;20155;-69
2023/04/28 01:32:03;;;;;;;5.38;2.75;;;;;;;;;;5127590;27;20070;-69
2023/04/28 01:34:30;;;;;;;4.07;2.33;;;;;;;;;;5123696;27;20136;-69
2023/04/28 01:36:57;;;;;;;4.40;2.88;;;;;;;;;;5127890;27;20054;-69
2023/04/28 01:39:25;;;;;;;4.05;2.45;;;;;;;;;;5130488;27;20043;-69
2023/04/28 01:41:53;;;;;;;4.05;2.72;;;;;;;;;;5127085;27;20043;-69
2023/04/28 01:44:21;;;;;;;5.18;2.72;;;;;;;;;;5129106;27;20473;-69
2023/04/28 01:46:48;;;;;;;4.00;2.55;;;;;;;;;;5128409;27;20043;-69
2023/04/28 01:49:15;;;;;;;4.70;2.80;;;;;;;;;;5124854;27;20494;-69
2023/04/28 01:51:43;;;;;;;4.07;2.65;;;;;;;;;;5123363;27;20050;-69
2023/04/28 01:54:10;;;;;;;6.43;2.55;;;;;;;;;;5107915;27;20045;-69
2023/04/28 01:56:37;;;;;;;4.57;2.58;;;;;;;;;;5129140;27;20050;-69
2023/04/28 01:59:06;;;;;;;4.90;2.53;;;;;;;;;;5126965;27;20134;-69
2023/04/28 02:01:33;;;;;;;9.07;2.85;;;;;;;;;;5127799;27;20129;-69
2023/04/28 02:04:00;;;;;;;5.53;2.78;;;;;;;;;;5125295;27;20052;-69
2023/04/28 02:06:28;;;;;;;6.35;2.60;;;;;;;;;;5129384;27;20474;-69
2023/04/28 02:08:55;;;;;;;4.90;2.72;;;;;;;;;;5125452;27;20087;-70
2023/04/28 02:11:22;;;;;;;4.45;2.72;;;;;;;;;;5129976;27;20058;-69
2023/04/28 02:13:49;;;;;;;6.63;2.97;;;;;;;;;;5127561;27;20086;-70
2023/04/28 02:16:18;;;;;;;6.85;2.92;;;;;;;;;;5124211;27;20047;-69
2023/04/28 02:18:45;;;;;;;5.40;2.90;;;;;;;;;;5129206;27;20057;-69
2023/04/28 02:21:13;;;;;;;5.93;3.05;;;;;;;;;;5124060;27;20410;-69
2023/04/28 02:23:40;;;;;;;5.28;2.80;;;;;;;;;;5127604;27;20035;-69
2023/04/28 02:26:08;;;;;;;5.78;2.80;;;;;;;;;;5123144;27;20043;-69
2023/04/28 02:28:35;;;;;;;6.82;3.05;;;;;;;;;;5128421;27;20347;-68
2023/04/28 02:31:06;;;;;;;5.05;2.88;;;;;;;;;;5129466;27;20115;-70
2023/04/28 02:33:35;;;;;;;5.70;3.00;;;;;;;;;;5127919;27;20136;-69
2023/04/28 02:36:03;;;;;;;6.80;3.10;;;;;;;;;;5129296;27;20063;-69
2023/04/28 02:38:30;;;;;;;5.85;3.00;;;;;;;;;;5128416;27;20057;-69
2023/04/28 02:41:00;;;;;;;8.73;2.85;;;;;;;;;;5129331;27;20495;-69
2023/04/28 02:43:28;;;;;;;4.43;2.65;;;;;;;;;;5126953;27;20043;-69
2023/04/28 02:45:55;;;;;;;5.25;3.00;;;;;;;;;;5127745;27;20498;-70
2023/04/28 02:48:23;;;;;;;7.30;2.90;;;;;;;;;;5128729;27;20099;-69
2023/04/28 02:50:52;;;;;;;6.55;3.13;;;;;;;;;;5127957;27;20050;-69
2023/04/28 02:53:19;;;;;;;5.60;2.90;;;;;;;;;;5129487;27;20055;-69
2023/04/28 02:55:46;;;;;;;7.00;3.13;;;;;;;;;;5127514;27;20047;-69
2023/04/28 02:58:13;;;;;;;6.85;3.53;;;;;;;;;;5124141;27;20053;-70
2023/04/28 03:00:41;;;;;;;6.57;3.50;;;;;;;;;;5124356;27;20039;-69
2023/04/28 03:03:08;;;;;;;5.95;3.38;;;;;;;;;;5126865;27;20391;-69
2023/04/28 03:05:35;;;;;;;6.45;3.50;;;;;;;;;;5109799;28;20108;-69
2023/04/28 03:08:04;;;;;;;6.97;3.40;;;;;;;;;;5127663;27;20051;-70
2023/04/28 03:10:31;;;;;;;6.45;3.28;;;;;;;;;;5126518;27;20051;-69
2023/04/28 03:12:59;;;;;;;6.65;3.30;;;;;;;;;;5127601;27;20043;-70
2023/04/28 03:15:26;;;;;;;5.88;3.15;;;;;;;;;;5129553;27;20054;-69
2023/04/28 03:17:53;;;;;;;7.10;3.85;;;;;;;;;;5126706;27;20056;-70
2023/04/28 03:20:21;;;;;;;9.25;3.50;;;;;;;;;;5129335;27;20486;-69
2023/04/28 03:22:48;;;;;;;5.90;3.50;;;;;;;;;;5124662;27;20047;-69
2023/04/28 03:25:17;;;;;;;7.68;3.72;;;;;;;;;;5124852;27;20078;-68
2023/04/28 03:27:44;;;;;;;7.10;3.60;;;;;;;;;;5127672;27;20050;-69
2023/04/28 03:30:12;;;;;;;7.82;3.90;;;;;;;;;;5127892;27;20047;-69
2023/04/28 03:32:40;;;;;;;5.68;3.67;;;;;;;;;;5126589;27;20047;-69
2023/04/28 03:35:07;;;;;;;6.93;3.70;;;;;;;;;;5127594;27;20557;-69
2023/04/28 03:37:34;;;;;;;6.80;3.80;;;;;;;;;;5124831;27;20431;-69
2023/04/28 03:40:02;;;;;;;7.53;3.95;;;;;;;;;;5128714;27;20585;-70
2023/04/28 03:42:30;;;;;;;9.63;3.60;;;;;;;;;;5123629;27;20047;-69
2023/04/28 03:44:58;;;;;;;8.07;3.97;;;;;;;;;;5129090;27;20044;-68
2023/04/28 03:47:25;;;;;;;7.97;3.90;;;;;;;;;;5127019;27;20558;-69
2023/04/28 03:49:52;;;;;;;8.13;4.00;;;;;;;;;;5128635;27;20048;-69
2023/04/28 03:52:19;;;;;;;7.45;3.60;;;;;;;;;;5128497;27;20043;-69
2023/04/28 03:54:47;;;;;;;8.55;4.03;;;;;;;;;;5127097;27;20055;-69
2023/04/28 03:57:14;;;;;;;8.48;4.10;;;;;;;;;;5127076;27;20055;-69
2023/04/28 03:59:43;;;;;;;7.82;4.38;;;;;;;;;;5128051;27;20043;-69
2023/04/28 04:02:10;;;;;;;5.72;3.90;;;;;;;;;;5126579;27;20130;-69
2023/04/28 04:04:37;;;;;;;9.52;4.65;;;;;;;;;;5121829;27;20059;-69
2023/04/28 04:07:04;;;;;;;8.85;4.22;;;;;;;;;;5125972;27;20048;-69
2023/04/28 04:09:32;;;;;;;10.13;4.30;;;;;;;;;;5131753;27;20278;-69
2023/04/28 04:11:59;;;;;;;8.82;4.55;;;;;;;;;;5131096;27;20043;-69
2023/04/28 04:14:27;;;;;;;7.60;4.38;;;;;;;;;;5132228;27;20082;-68
2023/04/28 04:16:55;;;;;;;9.63;4.50;;;;;;;;;;5111617;27;20055;-68
2023/04/28 04:19:25;;;;;;;12.35;4.90;;;;;;;;;;5129014;27;20090;-69
2023/04/28 04:21:52;;;;;;;10.38;5.10;;;;;;;;;;5132354;27;20050;-69
2023/04/28 04:24:19;;;;;;;8.90;4.45;;;;;;;;;;5127711;27;20046;-70
2023/04/28 04:26:47;;;;;;;9.82;4.65;;;;;;;;;;5129176;27;20055;-69
2023/04/28 04:29:14;;;;;;;8.55;4.97;;;;;;;;;;5131745;27;20043;-70
2023/04/28 04:31:41;;;;;;;9.70;4.63;;;;;;;;;;5130141;27;20047;-69
2023/04/28 04:34:10;;;;;;;12.90;5.22;;;;;;;;;;5131448;27;20051;-70
2023/04/28 04:36:37;;;;;;;11.77;4.95;;;;;;;;;;5131304;27;20050;-69
2023/04/28 04:39:04;;;;;;;9.77;4.60;;;;;;;;;;5132209;27;20092;-69
2023/04/28 04:41:32;;;;;;;8.32;4.80;;;;;;;;;;5130122;27;20047;-69
2023/04/28 04:43:59;;;;;;;9.80;4.72;;;;;;;;;;5131418;27;20086;-71
2023/04/28 04:46:26;;;;;;;10.02;5.78;;;;;;;;;;5126795;27;20043;-70
2023/04/28 04:48:54;;;;;;;9.57;5.07;;;;;;;;;;5130205;27;20051;-70
2023/04/28 04:51:22;;;;;;;11.20;5.45;;;;;;;;;;5130389;27;20038;-69
2023/04/28 04:53:49;;;;;;;10.57;5.40;;;;;;;;;;5128742;27;20070;-70
2023/04/28 04:56:17;;;;;;;11.88;5.30;;;;;;;;;;5131057;27;20047;-70
2023/04/28 04:58:44;;;;;;;11.38;4.70;;;;;;;;;;5129243;27;20462;-70
2023/04/28 05:01:11;;;;;;;10.88;5.60;;;;;;;;;;5130995;27;20050;-70
2023/04/28 05:03:38;;;;;;;11.60;5.28;;;;;;;;;;5130436;27;20043;-71
2023/04/28 05:06:06;;;;;;;11.80;5.60;;;;;;;;;;5127470;27;20047;-70
2023/04/28 05:08:35;;;;;;;11.68;5.57;;;;;;;;;;5129774;27;20077;-70
2023/04/28 05:11:02;;;;;;;11.68;5.43;;;;;;;;;;5128885;27;20571;-69
2023/04/28 05:13:29;;;;;;;10.57;5.80;;;;;;;;;;5128860;27;20486;-70
2023/04/28 05:15:56;;;;;;;13.00;5.22;;;;;;;;;;5129235;27;20054;-71
2023/04/28 05:18:24;;;;;;;14.00;5.97;;;;;;;;;;5130955;27;20061;-70
2023/04/28 05:20:51;;;;;;;13.50;5.97;;;;;;;;;;5129509;27;20047;-71
2023/04/28 05:23:18;;;;;;;10.95;5.72;;;;;;;;;;5130404;27;20078;-70
2023/04/28 05:25:47;;;;;;;11.50;5.75;;;;;;;;;;5129395;27;20051;-70
2023/04/28 05:28:14;;;;;;;12.43;5.55;;;;;;;;;;5129598;27;20050;-71
2023/04/28 05:30:43;;;;;;;14.10;5.60;;;;;;;;;;5130576;27;20047;-70
2023/04/28 05:33:11;;;;;;;10.23;5.60;;;;;;;;;;5127760;27;20051;-70
2023/04/28 05:35:38;;;;;;;11.75;5.78;;;;;;;;;;5129854;27;20078;-71
2023/04/28 05:38:06;;;;;;;11.68;5.78;;;;;;;;;;5126817;27;20043;-70
2023/04/28 05:40:33;;;;;;;11.07;5.28;;;;;;;;;;5129678;27;20043;-70
2023/04/28 05:43:01;;;;;;;10.05;5.10;;;;;;;;;;5111208;27;20084;-70
2023/04/28 05:45:29;;;;;;;11.68;5.57;;;;;;;;;;5129465;27;20035;-70
2023/04/28 05:47:56;;;;;;;10.02;5.40;;;;;;;;;;5129632;27;20051;-70
2023/04/28 05:50:24;;;;;;;11.93;5.45;;;;;;;;;;5127061;27;20047;-70
2023/04/28 05:52:51;;;;;;;11.23;5.60;;;;;;;;;;5122031;27;20071;-70
2023/04/28 05:55:18;;;;;;;9.32;5.45;;;;;;;;;;5126171;27;20078;-70
2023/04/28 05:57:45;;;;;;;12.82;5.38;;;;;;;;;;5127171;27;20343;-69
2023/04/28 06:00:15;;;;;;;12.65;5.95;;;;;;;;;;5127210;27;20058;-70
2023/04/28 06:02:42;;;;;;;10.48;5.47;;;;;;;;;;5127269;27;20095;-70
2023/04/28 06:05:10;;;;;;;13.75;5.75;;;;;;;;;;5125577;27;20067;-70
2023/04/28 06:07:37;;;;;;;10.52;5.10;;;;;;;;;;5128146;27;20069;-70
2023/04/28 06:10:05;;;;;;;9.38;5.00;;;;;;;;;;5125029;27;20058;-70
2023/04/28 06:12:32;;;;;;;10.90;5.88;;;;;;;;;;5127733;27;20043;-70
2023/04/28 06:14:59;;;;;;;11.50;5.15;;;;;;;;;;5127736;27;20043;-70
2023/04/28 06:17:30;;;;;;;10.63;5.38;;;;;;;;;;5126019;27;20130;-70
2023/04/28 06:19:58;;;;;;;9.57;5.47;;;;;;;;;;5128225;27;20081;-72
2023/04/28 06:22:25;;;;;;;11.75;5.70;;;;;;;;;;5127347;27;20554;-71
2023/04/28 06:24:52;;;;;;;10.95;5.18;;;;;;;;;;5127826;27;20112;-69
2023/04/28 06:27:20;;;;;;;11.32;5.63;;;;;;;;;;5127963;27;20047;-70
2023/04/28 06:29:47;;;;;;;10.07;5.18;;;;;;;;;;5104174;27;20046;-71
2023/04/28 06:32:14;;;;;;;11.13;5.00;;;;;;;;;;5110453;27;20767;-69
2023/04/28 06:34:43;;;;;;;9.52;5.10;;;;;;;;;;5123440;27;20550;-69
2023/04/28 06:37:10;;;;;;;10.90;5.53;;;;;;;;;;5130011;27;20480;-70
2023/04/28 06:39:38;;;;;;;9.95;5.35;;;;;;;;;;5125186;27;20066;-69
2023/04/28 06:42:05;;;;;;;14.55;5.93;;;;;;;;;;5124890;27;20055;-69
2023/04/28 06:44:32;;;;;;;10.07;5.78;;;;;;;;;;5123140;27;20174;-69
2023/04/28 06:47:00;;;;;;;8.98;4.72;;;;;;;;;;5127100;27;20513;-69
2023/04/28 06:49:27;;;;;;;10.93;5.60;;;;;;;;;;5123010;27;20420;-69
2023/04/28 06:51:56;;;;;;;11.45;5.30;;;;;;;;;;5125433;27;20054;-70
2023/04/28 06:54:25;;;;;;;11.18;5.30;;;;;;;;;;5121279;27;20138;-81
2023/04/28 06:56:52;;;;;;;8.90;4.93;;;;;;;;;;5102389;27;20069;-69
2023/04/28 06:59:19;;;;;;;12.35;5.43;;;;;;;;;;5127280;27;20474;-69
2023/04/28 07:01:46;;;;;;;9.32;5.57;;;;;;;;;;5124571;27;20390;-69
2023/04/28 07:04:14;;;;;;;10.07;5.00;;;;;;;;;;5127231;27;20051;-68
2023/04/28 07:06:41;;;;;;;9.65;5.40;;;;;;;;;;5123755;27;20047;-69
2023/04/28 07:09:09;;;;;;;9.48;4.60;;;;;;;;;;5125906;27;20067;-69
2023/04/28 07:11:37;;;;;;;9.23;4.82;;;;;;;;;;5126187;27;20069;-70
2023/04/28 07:14:04;;;;;;;7.88;4.90;;;;;;;;;;5122766;27;20051;-69
2023/04/28 07:16:31;;;;;;;9.20;4.43;;;;;;;;;;5119152;27;20060;-69
2023/04/28 07:18:59;;;;;;;10.57;5.47;;;;;;;;;;5112667;28;20124;-69
2023/04/28 07:21:27;;;;;;;8.60;4.88;;;;;;;;;;5112349;28;20048;-69
2023/04/28 07:23:55;;;;;;;8.85;4.68;;;;;;;;;;5103178;28;20048;-69
2023/04/28 07:26:24;;;;;;;7.93;4.35;;;;;;;;;;5102525;28;20051;-69
2023/04/28 07:28:51;;;;;;;9.95;5.32;;;;;;;;;;5107452;28;20762;-69
2023/04/28 07:31:20;;;;;;;9.93;5.03;;;;;;;;;;5116226;28;20489;-69
2023/04/28 07:33:47;;;;;;;14.27;5.68;;;;;;;;;;5108611;28;20048;-68
2023/04/28 07:36:15;;;;;;;8.75;4.55;;;;;;;;;;5120097;28;20044;-69
2023/04/28 07:38:42;;;;;;;11.23;5.07;;;;;;;;;;5112966;28;20052;-69
2023/04/28 07:41:09;;;;;;;11.45;5.40;;;;;;;;;;5114758;27;20059;-69
2023/04/28 07:43:38;;;;;;;10.90;5.78;;;;;;;;;;5123540;27;20062;-68
2023/04/28 07:46:05;;;;;;;11.45;5.40;;;;;;;;;;5105615;27;20135;-69
2023/04/28 07:48:33;;;;;;;11.50;5.22;;;;;;;;;;5110936;27;20062;-69
2023/04/28 07:51:00;;;;;;;9.60;5.20;;;;;;;;;;5113867;27;20051;-69
2023/04/28 07:53:27;;;;;;;10.50;5.85;;;;;;;;;;5113709;27;20048;-69
2023/04/28 07:55:55;;;;;;;8.52;5.30;;;;;;;;;;5112356;27;20109;-69
2023/04/28 07:58:22;;;;;;;11.07;5.40;;;;;;;;;;5110805;27;20063;-69
2023/04/28 08:00:51;;;;;;;9.27;5.70;;;;;;;;;;5117522;27;20482;-69
2023/04/28 08:03:18;;;;;;;9.05;5.10;;;;;;;;;;5109430;27;20056;-69
2023/04/28 08:05:45;;;;;;;12.80;5.82;;;;;;;;;;5108572;27;20050;-69
2023/04/28 08:08:12;;;;;;;8.60;5.13;;;;;;;;;;5119090;27;20062;-69
2023/04/28 08:10:41;;;;;;;13.20;6.00;;;;;;;;;;5114519;27;20049;-70
2023/04/28 08:13:08;;;;;;;8.80;5.18;;;;;;;;;;5114892;27;20533;-69
2023/04/28 08:15:35;;;;;;;10.07;5.55;;;;;;;;;;5118037;27;20067;-69
2023/04/28 08:18:04;;;;;;;8.63;4.88;;;;;;;;;;5126205;27;20130;-69
2023/04/28 08:20:31;;;;;;;10.25;5.25;;;;;;;;;;5123587;27;20526;-69
2023/04/28 08:22:59;;;;;;;11.88;5.45;;;;;;;;;;5125721;27;20035;-69
2023/04/28 08:25:26;;;;;;;9.95;5.55;;;;;;;;;;5125613;27;20099;-69
2023/04/28 08:27:54;;;;;;;9.68;5.35;;;;;;;;;;5116441;27;20044;-69
2023/04/28 08:30:22;;;;;;;9.27;4.85;;;;;;;;;;5132714;27;20051;-69
2023/04/28 08:32:49;;;;;;;9.80;4.97;;;;;;;;;;5109862;27;20062;-69
2023/04/28 08:35:18;;;;;;;8.93;5.22;;;;;;;;;;5123536;27;20040;-69
2023/04/28 08:37:48;;;;;;;8.10;4.80;;;;;;;;;;5128558;27;20125;-69
2023/04/28 08:40:15;;;;;;;8.93;5.03;;;;;;;;;;5130829;27;20046;-69
2023/04/28 08:42:44;;;;;;;8.82;5.30;;;;;;;;;;5128128;27;20043;-69
2023/04/28 08:45:14;;;;;;;9.45;5.28;;;;;;;;;;5129065;27;20050;-69
2023/04/28 08:47:44;;;;;;;9.30;4.82;;;;;;;;;;5108773;27;20047;-69
2023/04/28 08:50:12;;;;;;;10.50;5.78;;;;;;;;;;5126135;27;20463;-69
2023/04/28 08:52:41;;;;;;;10.63;5.47;;;;;;;;;;5124201;27;20532;-70
2023/04/28 08:55:09;;;;;;;10.07;5.45;;;;;;;;;;5129247;27;20047;-72
2023/04/28 08:57:38;;;;;;;11.45;5.40;;;;;;;;;;5125295;27;20046;-70
2023/04/28 09:00:06;;;;;;;10.18;5.60;;;;;;;;;;5128818;27;20054;-69
2023/04/28 09:02:34;;;;;;;10.02;5.50;;;;;;;;;;5131165;27;20500;-69
2023/04/28 09:05:02;;;;;;;8.02;5.20;;;;;;;;;;5127761;27;20079;-69
2023/04/28 09:07:29;;;;;;;9.32;5.53;;;;;;;;;;5129414;27;20130;-69
2023/04/28 09:10:14;;;;;;;8.65;5.10;;;;;;;;;;5128788;27;20054;-69
2023/04/28 09:12:43;;;;;;;8.73;4.93;;;;;;;;;;5110831;27;20112;-69
2023/04/28 09:15:10;;;;;;;8.60;5.10;;;;;;;;;;5132180;27;20039;-69
2023/04/28 09:17:49;;;;;;;7.97;4.97;;;;;;;;;;5128890;27;20087;-69
2023/04/28 09:20:23;;;;;;;8.43;4.90;;;;;;;;;;5108139;27;20104;-70
2023/04/28 09:22:50;;;;;;;9.30;5.10;;;;;;;;;;5125672;27;20107;-69
2023/04/28 09:25:20;;;;;;;9.20;5.28;;;;;;;;;;5130260;27;20066;-69
2023/04/28 09:27:48;;;;;;;9.32;5.40;;;;;;;;;;5128229;27;20096;-70
2023/04/28 09:30:16;;;;;;;10.75;5.13;;;;;;;;;;5129946;27;20130;-69
2023/04/28 09:32:43;;;;;;;8.75;4.88;;;;;;;;;;5128421;27;20134;-69
2023/04/28 09:35:10;;;;;;;8.63;4.82;;;;;;;;;;5129423;27;21270;-70
2023/04/28 09:37:38;;;;;;;8.07;4.70;;;;;;;;;;5128753;27;20054;-70
2023/04/28 09:40:07;;;;;;;8.27;5.30;;;;;;;;;;5128537;27;20043;-69
2023/04/28 09:42:38;;;;;;;9.38;5.30;;;;;;;;;;5127647;27;20104;-70
2023/04/28 09:45:07;;;;;;;9.32;5.43;;;;;;;;;;5110681;27;20054;-69
2023/04/28 09:47:36;;;;;;;8.23;5.28;;;;;;;;;;5125165;27;20104;-69
2023/04/28 09:50:05;;;;;;;7.85;5.45;;;;;;;;;;5128361;27;20051;-70
2023/04/28 09:52:33;;;;;;;8.63;4.72;;;;;;;;;;5126598;27;20111;-69
2023/04/28 09:55:02;;;;;;;10.30;5.72;;;;;;;;;;5128737;27;20051;-70
2023/04/28 09:57:31;;;;;;;9.35;5.57;;;;;;;;;;5125972;27;20043;-70
2023/04/28 09:59:58;;;;;;;8.60;5.78;;;;;;;;;;5124555;27;20049;-70
2023/04/28 10:02:28;;;;;;;11.77;6.30;;;;;;;;;;5111309;27;20493;-69
2023/04/28 10:04:55;;;;;;;10.35;6.05;;;;;;;;;;5123825;27;20035;-69
2023/04/28 10:07:23;;;;;;;10.60;6.18;;;;;;;;;;5114058;27;20126;-69
2023/04/28 10:09:50;;;;;;;10.10;6.45;;;;;;;;;;5127778;27;20057;-69
2023/04/28 10:12:18;;;;;;;12.75;6.70;;;;;;;;;;5129175;27;20047;-71
2023/04/28 10:14:46;;;;;;;12.63;6.63;;;;;;;;;;5130755;27;20043;-70
2023/04/28 10:17:14;;;;;;;10.85;6.53;;;;;;;;;;5129784;27;20506;-70
2023/04/28 10:19:44;;;;;;;11.45;6.57;;;;;;;;;;5128239;27;20047;-70
2023/04/28 10:22:23;;;;;;;10.15;6.85;;;;;;;;;;5128066;27;20473;-69
2023/04/28 10:24:59;;;;;;;11.35;7.25;;;;;;;;;;5125311;27;20070;-69
2023/04/28 10:27:30;;;;;;;13.73;6.70;;;;;;;;;;5120824;27;20055;-69
2023/04/28 10:30:10;;;;;;;13.50;7.20;;;;;;;;;;5124859;27;20041;-70
2023/04/28 10:32:38;;;;;;;12.00;6.57;;;;;;;;;;5127785;27;20043;-70
2023/04/28 10:35:24;;;;;;;12.88;6.57;;;;;;;;;;5126732;27;20088;-69
2023/04/28 10:38:09;;;;;;;13.90;6.70;;;;;;;;;;5127203;27;20498;-70
2023/04/28 10:40:38;;;;;;;13.98;7.32;;;;;;;;;;5126105;27;20051;-71
2023/04/28 10:43:06;;;;;;;9.77;6.47;;;;;;;;;;5122892;27;20047;-70
2023/04/28 10:45:52;;;;;;;11.75;7.13;;;;;;;;;;5124121;27;20086;-70
2023/04/28 10:48:19;;;;;;;13.13;7.13;;;;;;;;;;5127854;27;20043;-70
2023/04/28 10:51:17;;;;;;;13.48;7.15;;;;;;;;;;5125609;27;20047;-70
2023/04/28 10:54:03;;;;;;;15.35;6.60;;;;;;;;;;5123292;27;20061;-71
2023/04/28 10:56:31;;;;;;;9.63;6.68;;;;;;;;;;5107221;28;20055;-70
2023/04/28 10:58:59;;;;;;;12.05;6.88;;;;;;;;;;5119221;27;20043;-69
2023/04/28 11:01:28;;;;;;;13.10;7.38;;;;;;;;;;5127654;27;20757;-70
2023/04/28 11:04:01;;;;;;;14.25;7.10;;;;;;;;;;5120739;27;20089;-71
2023/04/28 11:06:30;;;;;;;10.48;6.80;;;;;;;;;;5126367;27;20047;-72
2023/04/28 11:08:59;;;;;;;10.80;6.50;;;;;;;;;;5127703;27;20043;-72
2023/04/28 11:11:27;;;;;;;11.10;6.57;;;;;;;;;;5126722;27;20054;-72
2023/04/28 11:13:56;;;;;;;12.57;7.30;;;;;;;;;;5128022;27;20046;-72
2023/04/28 11:16:25;;;;;;;12.25;6.80;;;;;;;;;;5126641;27;20101;-72
2023/04/28 11:18:57;;;;;;;10.35;7.10;;;;;;;;;;5119362;27;20177;-72
2023/04/28 11:21:27;;;;;;;12.90;7.63;;;;;;;;;;5112241;27;20105;-72
2023/04/28 11:23:54;;;;;;;10.80;6.57;;;;;;;;;;5113781;27;20051;-72
2023/04/28 11:26:22;;;;;;;11.88;7.05;;;;;;;;;;5112443;27;20092;-72
2023/04/28 11:28:51;;;;;;;12.77;7.80;;;;;;;;;;5107698;27;20048;-71
2023/04/28 11:31:22;;;;;;;12.88;6.85;;;;;;;;;;5109941;27;20043;-73
2023/04/28 11:33:55;;;;;;;10.88;6.30;;;;;;;;;;5107743;27;20052;-71
2023/04/28 11:36:26;;;;;;;12.63;7.15;;;;;;;;;;5116492;27;20048;-72
2023/04/28 11:38:55;;;;;;;12.27;7.20;;;;;;;;;;5116817;27;20051;-71
2023/04/28 11:41:22;;;;;;;10.20;6.97;;;;;;;;;;5116979;27;20489;-72
2023/04/28 11:43:49;;;;;;;12.60;7.65;;;;;;;;;;5112869;27;20054;-72
2023/04/28 11:46:17;;;;;;;12.43;7.30;;;;;;;;;;5110990;27;20059;-72
2023/04/28 11:48:46;;;;;;;14.10;7.82;;;;;;;;;;5115807;27;20126;-71
2023/04/28 11:51:31;;;;;;;12.10;7.65;;;;;;;;;;5113370;27;20070;-72
2023/04/28 11:53:58;;;;;;;13.23;7.40;;;;;;;;;;5115776;27;20044;-71
2023/04/28 11:56:26;;;;;;;12.70;7.60;;;;;;;;;;5117800;27;20598;-71
2023/04/28 11:59:03;;;;;;;10.35;7.05;;;;;;;;;;5113328;27;20567;-71
2023/04/28 12:01:30;;;;;;;12.10;7.72;;;;;;;;;;5111947;27;20047;-72
2023/04/28 12:03:59;;;;;;;14.13;7.55;;;;;;;;;;5113716;27;20048;-72
2023/04/28 12:06:28;;;;;;;11.95;7.47;;;;;;;;;;5115593;27;20509;-72
2023/04/28 12:08:56;;;;;;;10.82;6.90;;;;;;;;;;5117498;27;20128;-72
2023/04/28 12:11:24;;;;;;;11.18;7.10;;;;;;;;;;5117515;27;20401;-72
2023/04/28 12:14:04;;;;;;;10.90;7.22;;;;;;;;;;5116467;27;20047;-72
2023/04/28 12:16:38;;;;;;;12.57;7.50;;;;;;;;;;5115819;27;20056;-72
2023/04/28 12:19:09;;;;;;;11.65;7.10;;;;;;;;;;5129616;27;20117;-72
2023/04/28 12:21:37;;;;;;;11.35;6.65;;;;;;;;;;5130816;27;20043;-72
2023/04/28 12:24:14;;;;;;;13.85;6.82;;;;;;;;;;5132245;27;20043;-72
2023/04/28 12:26:41;;;;;;;11.55;7.57;;;;;;;;;;5130517;27;20078;-71
2023/04/28 12:29:09;;;;;;;12.45;6.75;;;;;;;;;;5130918;27;20062;-72
2023/04/28 12:31:48;;;;;;;12.68;7.53;;;;;;;;;;5132466;27;20043;-72
2023/04/28 12:34:17;;;;;;;10.70;6.68;;;;;;;;;;5131115;27;20550;-72
2023/04/28 12:36:45;;;;;;;12.57;7.75;;;;;;;;;;5129319;27;20058;-72
2023/04/28 12:39:18;;;;;;;11.05;6.90;;;;;;;;;;5127880;27;20126;-72
2023/04/28 12:41:45;;;;;;;;;;;;;;;;;;5122980;27;20123;-72
2023/04/28 12:44:14;;;;;;;11.95;6.75;;;;;;;;;;5130498;27;20641;-72
2023/04/28 12:46:41;;;;;;;13.93;7.10;;;;;;;;;;5105326;27;20054;-71
2023/04/28 12:49:09;;;;;;;11.77;7.60;;;;;;;;;;5130904;27;20055;-71
2023/04/28 12:51:38;;;;;;;13.60;7.88;;;;;;;;;;5131509;27;20051;-71
2023/04/28 12:54:05;;;;;;;14.27;7.55;;;;;;;;;;5127813;27;20391;-71
2023/04/28 12:56:33;;;;;;;12.05;7.57;;;;;;;;;;5129217;27;20043;-71
2023/04/28 12:59:01;;;;;;;15.02;8.23;;;;;;;;;;5126396;27;20075;-71
2023/04/28 13:01:28;;;;;;;15.02;9.05;;;;;;;;;;5130221;27;20123;-72
2023/04/28 13:03:55;;;;;;;12.77;8.10;;;;;;;;;;5130060;27;20054;-71
2023/04/28 13:06:23;;;;;;;16.13;8.85;;;;;;;;;;5128265;27;20039;-71
2023/04/28 13:08:51;;;;;;;12.20;8.25;;;;;;;;;;5111351;27;20554;-70
2023/04/28 13:11:18;;;;;;;13.10;8.25;;;;;;;;;;5129087;27;20744;-71
2023/04/28 13:13:46;;;;;;;13.05;8.23;;;;;;;;;;5130055;27;20049;-71
2023/04/28 13:16:14;;;;;;;10.07;7.22;;;;;;;;;;5128170;27;20047;-71
2023/04/28 13:18:41;;;;;;;12.60;8.90;;;;;;;;;;5131052;27;20546;-71
2023/04/28 13:21:08;;;;;;;13.55;8.35;;;;;;;;;;5130808;27;20058;-72
2023/04/28 13:23:36;;;;;;;15.18;8.00;;;;;;;;;;5127907;27;20043;-71
2023/04/28 13:26:04;;;;;;;13.80;7.22;;;;;;;;;;5130143;27;20138;-71
2023/04/28 13:28:32;;;;;;;11.18;7.45;;;;;;;;;;5130393;27;20409;-71
2023/04/28 13:30:59;;;;;;;14.32;8.00;;;;;;;;;;5131289;27;20047;-70
2023/04/28 13:33:30;;;;;;;12.10;7.57;;;;;;;;;;5129078;27;20608;-71
2023/04/28 13:35:58;;;;;;;17.00;7.35;;;;;;;;;;5129398;27;20104;-71
2023/04/28 13:38:25;;;;;;;10.80;7.53;;;;;;;;;;5128229;27;20096;-70
2023/04/28 13:40:53;;;;;;;13.18;8.25;;;;;;;;;;5110496;27;20054;-72
2023/04/28 13:43:22;;;;;;;15.25;8.43;;;;;;;;;;5125419;27;20047;-71
2023/04/28 13:45:49;;;;;;;11.70;7.97;;;;;;;;;;5129231;27;20082;-71
2023/04/28 13:48:16;;;;;;;13.48;7.55;;;;;;;;;;5125868;27;20035;-71
2023/04/28 13:50:43;;;;;;;13.75;7.50;;;;;;;;;;5128253;27;20059;-72
2023/04/28 13:53:11;;;;;;;12.30;7.82;;;;;;;;;;5128008;27;20796;-71
2023/04/28 13:55:38;;;;;;;14.13;7.80;;;;;;;;;;5125064;27;20049;-71
2023/04/28 13:58:05;;;;;;;13.65;8.05;;;;;;;;;;5129256;27;20061;-71
2023/04/28 14:00:36;;;;;;;13.45;8.13;;;;;;;;;;5124622;27;20044;-71
2023/04/28 14:03:03;;;;;;;13.10;7.45;;;;;;;;;;5127597;27;20121;-71
2023/04/28 14:05:31;;;;;;;13.05;8.40;;;;;;;;;;5127395;27;20047;-70
2023/04/28 14:08:00;;;;;;;12.95;7.97;;;;;;;;;;5126805;27;20519;-71
2023/04/28 14:10:27;;;;;;;13.63;8.60;;;;;;;;;;5128092;27;20082;-72
2023/04/28 14:12:55;;;;;;;11.57;7.53;;;;;;;;;;5124253;27;20062;-71
2023/04/28 14:15:22;;;;;;;14.52;8.82;;;;;;;;;;5129511;27;20134;-72
2023/04/28 14:17:51;;;;;;;11.52;8.07;;;;;;;;;;5124822;27;20106;-72
2023/04/28 14:20:18;;;;;;;12.32;8.85;;;;;;;;;;5127105;27;20046;-72
2023/04/28 14:22:45;;;;;;;15.20;9.05;;;;;;;;;;5123054;27;20051;-71
2023/04/28 14:25:13;;;;;;;12.63;8.60;;;;;;;;;;5128361;27;20401;-71
2023/04/28 14:27:40;;;;;;;14.18;8.60;;;;;;;;;;5128577;27;20039;-71
2023/04/28 14:30:08;;;;;;;12.35;8.43;;;;;;;;;;5125891;27;20046;-71
2023/04/28 14:32:36;;;;;;;12.55;8.50;;;;;;;;;;5128703;27;20043;-71
2023/04/28 14:35:05;;;;;;;11.52;7.97;;;;;;;;;;5120887;27;20051;-71
2023/04/28 14:37:33;;;;;;;13.90;8.82;;;;;;;;;;5122955;27;20105;-72
2023/04/28 14:40:00;;;;;;;12.32;8.02;;;;;;;;;;5127509;27;20050;-71
2023/04/28 14:42:29;;;;;;;11.98;8.40;;;;;;;;;;5126967;27;20053;-71